createdAt,value
2023-01-09T00:00:01.296Z,6.17
2023-01-09T00:02:45.986Z,6.31
2023-01-09T00:05:17.512Z,6.27
2023-01-09T00:07:45.466Z,6.24
2023-01-09T00:10:13.795Z,6.22
2023-01-09T00:12:41.984Z,6.19
2023-01-09T00:15:10.735Z,6.14
2023-01-09T00:17:42.794Z,6.06
2023-01-09T00:20:15.325Z,6.10
2023-01-09T00:22:50.997Z,6.09
2023-01-09T00:25:21.145Z,6.01
2023-01-09T00:27:52.749Z,6.06
2023-01-09T00:30:28.041Z,6.10
2023-01-09T00:32:57.831Z,6.15
2023-01-09T00:35:29.577Z,6.14
2023-01-09T00:37:57.797Z,6.14
2023-01-09T00:40:26.053Z,6.11
2023-01-09T00:42:59.087Z,6.10
2023-01-09T00:45:30.078Z,6.12
2023-01-09T00:48:03.811Z,6.11
2023-01-09T00:50:36.898Z,6.07
2023-01-09T00:53:20.743Z,6.04
2023-01-09T00:55:54.317Z,6.07
2023-01-09T00:58:21.735Z,6.08
2023-01-09T01:00:50.771Z,6.08
2023-01-09T01:03:21.310Z,6.09
2023-01-09T01:06:12.028Z,6.19
2023-01-09T01:08:42.428Z,6.16
2023-01-09T01:11:10.868Z,6.10
2023-01-09T01:13:43.761Z,6.16
2023-01-09T01:16:13.391Z,6.16
2023-01-09T01:18:41.550Z,6.11
2023-01-09T01:21:12.187Z,6.16
2023-01-09T01:23:41.412Z,6.13
2023-01-09T01:26:12.512Z,6.19
2023-01-09T01:28:43.448Z,6.20
2023-01-09T01:31:18.495Z,6.21
2023-01-09T01:33:48.383Z,6.25
2023-01-09T01:36:17.734Z,6.30
2023-01-09T01:38:46.981Z,6.33
2023-01-09T01:41:30.348Z,6.38
2023-01-09T01:44:08.945Z,6.39
2023-01-09T01:46:40.146Z,6.40
2023-01-09T01:49:15.521Z,6.45
2023-01-09T01:51:46.248Z,6.52
2023-01-09T01:54:28.814Z,6.58
2023-01-09T01:57:01.294Z,6.62
2023-01-09T01:59:40.987Z,6.66
2023-01-09T02:02:11.353Z,6.66
2023-01-09T02:04:45.633Z,6.68
2023-01-09T02:07:13.987Z,6.78
2023-01-09T02:09:47.787Z,6.80
2023-01-09T02:12:17.560Z,6.82
2023-01-09T02:14:47.240Z,6.83
2023-01-09T02:17:56.842Z,6.90
2023-01-09T02:20:52.048Z,6.91
2023-01-09T02:23:45.575Z,6.99
2023-01-09T02:26:34.687Z,7.08
2023-01-09T02:29:30.752Z,7.03
2023-01-09T02:32:17.809Z,7.01
2023-01-09T02:35:16.923Z,6.96
2023-01-09T02:38:03.576Z,6.96
2023-01-09T02:41:00.517Z,6.90
2023-01-09T02:43:30.400Z,6.88
2023-01-09T02:45:59.133Z,6.91
2023-01-09T02:48:34.294Z,6.91
2023-01-09T02:51:38.096Z,6.93
2023-01-09T02:54:18.976Z,6.95
2023-01-09T02:57:23.736Z,6.95
2023-01-09T03:00:16.570Z,6.90
2023-01-09T03:03:42.683Z,6.89
2023-01-09T03:06:43.468Z,6.89
2023-01-09T03:09:20.924Z,6.88
2023-01-09T03:11:58.470Z,6.92
2023-01-09T03:14:30.648Z,6.93
2023-01-09T03:17:06.288Z,6.89
2023-01-09T03:19:46.712Z,6.88
2023-01-09T03:22:17.613Z,6.86
2023-01-09T03:24:51.931Z,6.87
2023-01-09T03:27:22.504Z,6.81
2023-01-09T03:29:53.406Z,6.91
2023-01-09T03:32:22.689Z,6.88
2023-01-09T03:34:50.323Z,6.81
2023-01-09T03:37:22.813Z,6.85
2023-01-09T03:39:53.557Z,6.89
2023-01-09T03:42:22.732Z,6.87
2023-01-09T03:44:54.634Z,6.86
2023-01-09T03:47:26.451Z,6.90
2023-01-09T03:50:06.603Z,6.88
2023-01-09T03:52:36.791Z,6.86
2023-01-09T03:55:05.747Z,6.85
2023-01-09T03:57:33.852Z,6.86
2023-01-09T04:00:14.193Z,6.82
2023-01-09T04:02:42.535Z,6.85
2023-01-09T04:05:12.589Z,6.82
2023-01-09T04:07:49.591Z,6.84
2023-01-09T04:10:25.132Z,6.90
2023-01-09T04:13:01.858Z,6.86
2023-01-09T04:15:31.873Z,6.86
2023-01-09T04:17:59.884Z,6.98
2023-01-09T04:20:27.263Z,7.05
2023-01-09T04:23:01.631Z,7.00
2023-01-09T04:25:30.200Z,6.98
2023-01-09T04:28:01.959Z,6.96
2023-01-09T04:30:32.445Z,6.92
2023-01-09T04:33:00.769Z,6.91
2023-01-09T04:35:31.788Z,6.96
2023-01-09T04:38:01.047Z,6.91
2023-01-09T04:40:32.631Z,6.91
2023-01-09T04:43:03.584Z,6.87
2023-01-09T04:45:33.782Z,6.92
2023-01-09T04:48:03.883Z,6.95
2023-01-09T04:50:33.245Z,6.97
2023-01-09T04:53:03.262Z,6.98
2023-01-09T04:55:35.877Z,6.93
2023-01-09T04:58:04.254Z,6.96
2023-01-09T05:00:34.228Z,6.90
2023-01-09T05:03:06.152Z,6.90
2023-01-09T05:05:42.595Z,6.91
2023-01-09T05:08:10.916Z,6.90
2023-01-09T05:10:40.427Z,6.84
2023-01-09T05:13:08.449Z,6.93
2023-01-09T05:15:36.381Z,6.96
2023-01-09T05:18:11.535Z,6.93
2023-01-09T05:20:40.117Z,6.91
2023-01-09T05:23:09.562Z,6.88
2023-01-09T05:25:37.615Z,6.93
2023-01-09T05:28:07.340Z,6.95
2023-01-09T05:30:37.437Z,6.90
2023-01-09T05:33:09.749Z,6.92
2023-01-09T05:35:38.781Z,6.93
2023-01-09T05:38:06.491Z,6.99
2023-01-09T05:40:40.173Z,6.97
2023-01-09T05:43:10.646Z,6.97
2023-01-09T05:45:41.052Z,6.91
2023-01-09T05:48:09.684Z,6.94
2023-01-09T05:50:39.716Z,6.99
2023-01-09T05:53:09.953Z,6.96
2023-01-09T05:55:37.834Z,6.90
2023-01-09T05:58:05.679Z,6.92
2023-01-09T06:00:35.799Z,6.92
2023-01-09T06:03:04.790Z,6.96
2023-01-09T06:05:34.517Z,6.93
2023-01-09T06:08:02.199Z,6.96
2023-01-09T06:10:29.875Z,7.05
2023-01-09T06:13:01.926Z,7.04
2023-01-09T06:15:33.181Z,7.00
2023-01-09T06:18:01.141Z,6.95
2023-01-09T06:20:28.814Z,6.90
2023-01-09T06:23:05.767Z,6.94
2023-01-09T06:25:35.738Z,7.01
2023-01-09T06:28:04.551Z,6.95
2023-01-09T06:30:35.062Z,6.94
2023-01-09T06:33:06.747Z,6.90
2023-01-09T06:35:34.577Z,6.89
2023-01-09T06:38:06.572Z,6.84
2023-01-09T06:40:37.210Z,6.96
2023-01-09T06:43:04.622Z,6.85
2023-01-09T06:45:34.549Z,6.76
2023-01-09T06:48:08.652Z,6.70
2023-01-09T06:50:38.565Z,6.76
2023-01-09T06:53:16.707Z,6.67
2023-01-09T06:55:50.902Z,6.74
2023-01-09T06:58:22.505Z,6.74
2023-01-09T07:00:50.981Z,6.80
2023-01-09T07:03:22.722Z,6.75
2023-01-09T07:05:51.730Z,6.75
2023-01-09T07:08:21.691Z,6.76
2023-01-09T07:10:51.699Z,6.78
2023-01-09T07:13:24.172Z,6.74
2023-01-09T07:15:55.954Z,6.78
2023-01-09T07:18:23.515Z,6.71
2023-01-09T07:20:53.501Z,6.68
2023-01-09T07:23:20.914Z,6.70
2023-01-09T07:25:51.291Z,6.63
2023-01-09T07:28:25.384Z,6.67
2023-01-09T07:30:55.989Z,6.69
2023-01-09T07:33:24.416Z,6.74
2023-01-09T07:35:53.949Z,6.84
2023-01-09T07:38:27.951Z,6.92
2023-01-09T07:40:57.436Z,6.98
2023-01-09T07:43:24.953Z,6.99
2023-01-09T07:45:52.132Z,7.00
2023-01-09T07:48:19.288Z,7.05
2023-01-09T07:50:47.046Z,7.03
2023-01-09T07:53:15.912Z,6.97
2023-01-09T07:55:43.702Z,7.01
2023-01-09T07:58:15.882Z,7.05
2023-01-09T08:00:46.566Z,7.00
2023-01-09T08:03:15.381Z,6.89
2023-01-09T08:05:43.463Z,6.80
2023-01-09T08:08:12.068Z,6.75
2023-01-09T08:10:39.515Z,6.70
2023-01-09T08:13:06.827Z,6.59
2023-01-09T08:15:34.451Z,6.54
2023-01-09T08:18:01.986Z,6.55
2023-01-09T08:20:29.178Z,6.54
2023-01-09T08:22:56.889Z,6.45
2023-01-09T08:25:24.377Z,6.48
2023-01-09T08:27:51.643Z,6.48
2023-01-09T08:30:19.454Z,6.40
2023-01-09T08:32:55.621Z,6.34
2023-01-09T08:35:22.929Z,6.33
2023-01-09T08:37:50.572Z,6.36
2023-01-09T08:40:18.133Z,6.34
2023-01-09T08:43:07.470Z,6.40
2023-01-09T08:45:53.790Z,6.33
2023-01-09T08:48:21.055Z,6.39
2023-01-09T08:50:49.008Z,6.46
2023-01-09T08:53:16.203Z,6.32
2023-01-09T08:55:43.688Z,6.37
2023-01-09T08:58:11.635Z,6.38
2023-01-09T09:00:38.937Z,6.28
2023-01-09T09:03:06.141Z,6.25
2023-01-09T09:05:36.467Z,6.18
2023-01-09T09:08:04.229Z,6.22
2023-01-09T09:10:32.856Z,6.21
2023-01-09T09:13:00.638Z,6.12
2023-01-09T09:15:28.643Z,6.15
2023-01-09T09:18:06.929Z,6.10
2023-01-09T09:20:36.924Z,6.10
2023-01-09T09:23:04.756Z,6.11
2023-01-09T09:25:31.895Z,6.05
2023-01-09T09:28:01.235Z,5.98
2023-01-09T09:30:28.691Z,5.96
2023-01-09T09:32:55.814Z,5.93
2023-01-09T09:35:23.324Z,5.95
2023-01-09T09:38:05.134Z,5.96
2023-01-09T09:40:52.891Z,5.93
2023-01-09T09:43:38.420Z,5.96
2023-01-09T09:46:33.303Z,5.87
2023-01-09T09:49:19.914Z,5.75
2023-01-09T09:52:08.305Z,5.71
2023-01-09T09:54:41.287Z,5.70
2023-01-09T09:57:16.436Z,5.77
2023-01-09T09:59:48.239Z,5.70
2023-01-09T10:02:35.176Z,5.69
2023-01-09T10:05:12.581Z,5.71
2023-01-09T10:07:46.608Z,5.70
2023-01-09T10:10:27.422Z,5.66
2023-01-09T10:12:58.014Z,5.69
2023-01-09T10:15:44.275Z,5.69
2023-01-09T10:18:44.500Z,5.65
2023-01-09T10:21:53.370Z,5.70
2023-01-09T10:25:05.464Z,5.67
2023-01-09T10:28:06.993Z,5.71
2023-01-09T10:30:45.718Z,5.77
2023-01-09T10:33:34.754Z,5.71
2023-01-09T10:36:13.923Z,5.76
2023-01-09T10:38:45.280Z,5.80
2023-01-09T10:41:29.143Z,5.79
2023-01-09T10:44:19.719Z,5.79
2023-01-09T10:47:14.293Z,5.71
2023-01-09T10:49:41.490Z,5.76
2023-01-09T10:52:20.760Z,5.79
2023-01-09T10:55:13.024Z,5.81
2023-01-09T10:57:50.805Z,5.82
2023-01-09T11:00:24.317Z,5.87
2023-01-09T11:02:53.490Z,5.79
2023-01-09T11:05:28.194Z,5.86
2023-01-09T11:08:18.347Z,5.90
2023-01-09T11:10:45.933Z,5.78
2023-01-09T11:13:27.057Z,5.79
2023-01-09T11:16:17.954Z,5.72
2023-01-09T11:18:57.747Z,5.73
2023-01-09T11:21:24.959Z,5.68
2023-01-09T11:23:52.222Z,5.72
2023-01-09T11:26:24.695Z,5.69
2023-01-09T11:29:10.962Z,5.62
2023-01-09T11:31:39.983Z,5.65
2023-01-09T11:34:20.609Z,5.59
2023-01-09T11:36:48.779Z,5.68
2023-01-09T11:39:32.274Z,5.76
2023-01-09T11:42:02.332Z,5.76
2023-01-09T11:44:32.152Z,5.78
2023-01-09T11:46:59.965Z,5.87
2023-01-09T11:49:29.442Z,5.82
2023-01-09T11:52:16.811Z,5.85
2023-01-09T11:55:11.675Z,5.88
2023-01-09T11:57:39.125Z,5.94
2023-01-09T12:00:29.471Z,5.98
2023-01-09T12:03:02.729Z,5.96
2023-01-09T12:05:48.498Z,5.95
2023-01-09T12:08:18.826Z,5.95
2023-01-09T12:11:03.864Z,6.01
2023-01-09T12:13:54.403Z,6.06
2023-01-09T12:16:51.100Z,6.12
2023-01-09T12:20:04.553Z,6.12
2023-01-09T12:22:54.119Z,6.11
2023-01-09T12:25:35.008Z,6.04
2023-01-09T12:28:34.858Z,5.99
2023-01-09T12:31:35.368Z,6.08
2023-01-09T12:34:32.884Z,6.09
2023-01-09T12:37:13.414Z,6.11
2023-01-09T12:39:58.581Z,6.15
2023-01-09T12:42:41.002Z,6.13
2023-01-09T12:45:33.350Z,6.17
2023-01-09T12:48:17.609Z,6.22
2023-01-09T12:50:44.653Z,6.20
2023-01-09T12:53:30.169Z,6.19
2023-01-09T12:56:19.492Z,6.18
2023-01-09T12:58:51.633Z,6.20
2023-01-09T13:01:28.586Z,6.20
2023-01-09T13:04:05.369Z,6.08
2023-01-09T13:06:35.415Z,6.24
2023-01-09T13:09:18.259Z,6.16
2023-01-09T13:12:12.406Z,6.13
2023-01-09T13:14:51.824Z,6.17
2023-01-09T13:17:25.538Z,6.17
2023-01-09T13:19:54.119Z,6.21
2023-01-09T13:22:25.570Z,6.24
2023-01-09T13:25:26.172Z,6.21
2023-01-09T13:27:59.550Z,6.27
2023-01-09T13:31:04.406Z,6.30
2023-01-09T13:33:37.673Z,6.28
2023-01-09T13:36:05.801Z,6.30
2023-01-09T13:38:38.265Z,6.27
2023-01-09T13:41:31.806Z,6.33
2023-01-09T13:44:04.621Z,6.38
2023-01-09T13:46:38.809Z,6.39
2023-01-09T13:49:05.999Z,6.39
2023-01-09T13:51:42.557Z,6.40
2023-01-09T13:54:10.571Z,6.50
2023-01-09T13:57:18.977Z,6.53
2023-01-09T13:59:49.882Z,6.49
2023-01-09T14:02:35.770Z,6.41
2023-01-09T14:05:15.529Z,6.45
2023-01-09T14:07:49.360Z,6.42
2023-01-09T14:10:27.419Z,6.49
2023-01-09T14:12:56.922Z,6.54
2023-01-09T14:15:44.727Z,6.44
2023-01-09T14:18:26.371Z,6.43
2023-01-09T14:21:10.127Z,6.28
2023-01-09T14:23:59.199Z,6.23
2023-01-09T14:26:45.266Z,6.17
2023-01-09T14:29:44.297Z,6.19
2023-01-09T14:32:20.989Z,6.21
2023-01-09T14:34:53.764Z,6.25
2023-01-09T14:37:21.665Z,6.30
2023-01-09T14:39:50.499Z,6.26
2023-01-09T14:42:23.823Z,6.28
2023-01-09T14:44:53.880Z,6.34
2023-01-09T14:47:48.665Z,6.38
2023-01-09T14:50:35.896Z,6.39
2023-01-09T14:53:22.826Z,6.31
2023-01-09T14:56:05.994Z,6.26
2023-01-09T14:58:35.054Z,6.18
2023-01-09T15:01:18.858Z,6.17
2023-01-09T15:03:50.897Z,6.26
2023-01-09T15:06:42.291Z,6.25
2023-01-09T15:09:22.086Z,6.37
2023-01-09T15:11:50.371Z,6.39
2023-01-09T15:14:29.813Z,6.36
2023-01-09T15:16:57.788Z,6.38
2023-01-09T15:19:24.982Z,6.40
2023-01-09T15:22:04.877Z,6.35
2023-01-09T15:24:34.665Z,6.36
2023-01-09T15:27:10.304Z,6.35
2023-01-09T15:29:37.711Z,6.30
2023-01-09T15:32:09.318Z,6.29
2023-01-09T15:34:36.747Z,6.26
2023-01-09T15:37:04.451Z,6.33
2023-01-09T15:39:36.660Z,6.47
2023-01-09T15:42:22.989Z,6.49
2023-01-09T15:44:52.239Z,6.43
2023-01-09T15:47:29.335Z,6.32
2023-01-09T15:49:57.520Z,6.30
2023-01-09T15:52:25.927Z,6.37
2023-01-09T15:54:53.023Z,6.26
2023-01-09T15:57:26.113Z,6.29
2023-01-09T15:59:54.750Z,6.38
2023-01-09T16:02:42.560Z,6.37
2023-01-09T16:05:17.450Z,6.33
2023-01-09T16:07:48.963Z,6.27
2023-01-09T16:10:49.204Z,6.31
2023-01-09T16:13:16.320Z,6.23
2023-01-09T16:15:46.225Z,6.24
2023-01-09T16:18:16.663Z,6.17
2023-01-09T16:20:44.883Z,6.10
2023-01-09T16:23:32.992Z,5.99
2023-01-09T16:26:07.134Z,6.02
2023-01-09T16:28:34.329Z,6.03
2023-01-09T16:31:08.817Z,6.05
2023-01-09T16:33:43.452Z,6.00
2023-01-09T16:36:13.735Z,6.02
2023-01-09T16:38:44.150Z,6.00
2023-01-09T16:41:34.833Z,6.00
2023-01-09T16:44:06.559Z,6.00
2023-01-09T16:46:39.593Z,6.22
2023-01-09T16:49:15.624Z,6.18
2023-01-09T16:51:42.998Z,6.20
2023-01-09T16:54:10.150Z,6.20
2023-01-09T16:56:39.611Z,6.25
2023-01-09T16:59:13.152Z,6.23
2023-01-09T17:01:43.463Z,6.24
2023-01-09T17:04:12.837Z,6.18
2023-01-09T17:06:41.783Z,6.14
2023-01-09T17:09:14.397Z,6.10
2023-01-09T17:11:42.609Z,6.11
2023-01-09T17:14:12.626Z,6.09
2023-01-09T17:16:43.283Z,6.09
2023-01-09T17:19:17.969Z,6.11
2023-01-09T17:21:45.660Z,6.10
2023-01-09T17:24:31.651Z,6.20
2023-01-09T17:27:18.645Z,6.24
2023-01-09T17:29:46.218Z,6.29
2023-01-09T17:32:15.663Z,6.40
2023-01-09T17:34:43.445Z,6.32
2023-01-09T17:37:19.597Z,6.35
2023-01-09T17:39:47.272Z,6.41
2023-01-09T17:42:14.701Z,6.33
2023-01-09T17:44:41.806Z,6.31
2023-01-09T17:47:15.799Z,6.23
2023-01-09T17:49:43.440Z,6.19
2023-01-09T17:52:10.618Z,6.19
2023-01-09T17:54:37.692Z,6.14
2023-01-09T17:57:05.776Z,6.19
2023-01-09T17:59:33.161Z,6.24
2023-01-09T18:02:00.302Z,6.25
2023-01-09T18:04:27.689Z,6.21
2023-01-09T18:06:54.830Z,6.20
2023-01-09T18:09:21.930Z,6.15
2023-01-09T18:11:49.328Z,6.06
2023-01-09T18:14:17.552Z,5.95
2023-01-09T18:16:45.388Z,5.93
2023-01-09T18:19:12.907Z,5.96
2023-01-09T18:21:39.966Z,5.94
2023-01-09T18:24:07.520Z,6.04
2023-01-09T18:26:35.031Z,6.17
2023-01-09T18:29:02.192Z,6.18
2023-01-09T18:31:30.488Z,6.21
2023-01-09T18:34:02.231Z,6.24
2023-01-09T18:36:30.229Z,6.19
2023-01-09T18:38:59.348Z,6.05
2023-01-09T18:41:27.295Z,6.08
2023-01-09T18:43:56.859Z,6.15
2023-01-09T18:46:25.354Z,6.10
2023-01-09T18:49:03.620Z,6.19
2023-01-09T18:51:32.064Z,6.19
2023-01-09T18:53:59.063Z,6.15
2023-01-09T18:56:29.035Z,6.13
2023-01-09T18:58:57.791Z,6.13
2023-01-09T19:01:26.277Z,6.12
2023-01-09T19:03:53.489Z,6.25
2023-01-09T19:06:20.976Z,6.30
2023-01-09T19:08:48.041Z,6.25
2023-01-09T19:11:15.222Z,6.19
2023-01-09T19:13:42.587Z,6.20
2023-01-09T19:16:10.522Z,6.18
2023-01-09T19:18:40.763Z,6.11
2023-01-09T19:21:17.415Z,6.09
2023-01-09T19:23:45.904Z,6.13
2023-01-09T19:26:20.239Z,6.18
2023-01-09T19:28:48.226Z,6.13
2023-01-09T19:31:16.658Z,6.15
2023-01-09T19:33:44.651Z,6.13
2023-01-09T19:36:11.773Z,6.13
2023-01-09T19:38:39.163Z,6.17
2023-01-09T19:41:13.034Z,6.18
2023-01-09T19:43:43.754Z,6.11
2023-01-09T19:46:13.874Z,6.24
2023-01-09T19:48:44.087Z,6.17
2023-01-09T19:51:13.638Z,6.26
2023-01-09T19:53:41.119Z,6.24
2023-01-09T19:56:11.461Z,6.18
2023-01-09T19:58:39.830Z,6.21
2023-01-09T20:01:18.676Z,6.24
2023-01-09T20:03:48.592Z,6.29
2023-01-09T20:06:19.094Z,6.24
2023-01-09T20:08:51.651Z,6.27
2023-01-09T20:11:20.971Z,6.25
2023-01-09T20:13:48.654Z,6.32
2023-01-09T20:16:19.935Z,6.28
2023-01-09T20:18:47.538Z,6.23
2023-01-09T20:21:22.270Z,6.21
2023-01-09T20:23:55.627Z,6.11
2023-01-09T20:26:23.484Z,6.15
2023-01-09T20:28:50.505Z,6.15
2023-01-09T20:31:19.411Z,6.15
2023-01-09T20:33:48.019Z,6.14
2023-01-09T20:36:15.758Z,6.05
2023-01-09T20:38:44.081Z,6.04
2023-01-09T20:41:23.915Z,6.15
2023-01-09T20:43:55.384Z,6.15
2023-01-09T20:46:26.077Z,6.13
2023-01-09T20:48:56.023Z,6.15
2023-01-09T20:51:23.720Z,6.16
2023-01-09T20:53:58.451Z,6.18
2023-01-09T20:56:27.838Z,6.07
2023-01-09T20:58:56.526Z,6.03
2023-01-09T21:01:24.494Z,6.04
2023-01-09T21:03:53.282Z,6.07
2023-01-09T21:06:22.388Z,6.08
2023-01-09T21:08:50.974Z,6.03
2023-01-09T21:11:20.049Z,6.00
2023-01-09T21:13:47.610Z,6.04
2023-01-09T21:16:21.523Z,6.06
2023-01-09T21:18:49.285Z,6.05
2023-01-09T21:21:24.841Z,6.03
2023-01-09T21:23:55.281Z,5.99
2023-01-09T21:26:26.014Z,5.97
2023-01-09T21:28:55.322Z,6.16
2023-01-09T21:31:25.631Z,6.08
2023-01-09T21:33:54.509Z,6.18
2023-01-09T21:36:24.849Z,6.19
2023-01-09T21:38:54.644Z,6.08
2023-01-09T21:41:41.037Z,6.02
2023-01-09T21:44:30.529Z,6.12
2023-01-09T21:47:00.250Z,6.12
2023-01-09T21:49:31.198Z,6.05
2023-01-09T21:51:58.734Z,6.05
2023-01-09T21:54:25.874Z,6.06
2023-01-09T21:56:54.628Z,6.05
2023-01-09T21:59:22.343Z,6.09
2023-01-09T22:01:50.252Z,5.99
2023-01-09T22:04:20.527Z,6.11
2023-01-09T22:06:47.658Z,6.21
2023-01-09T22:09:15.483Z,6.27
2023-01-09T22:11:43.716Z,6.22
2023-01-09T22:14:14.510Z,6.27
2023-01-09T22:16:43.630Z,6.29
2023-01-09T22:19:12.538Z,6.24
2023-01-09T22:21:39.721Z,6.21
2023-01-09T22:24:07.090Z,6.17
2023-01-09T22:26:35.170Z,6.21
2023-01-09T22:29:02.312Z,6.17
2023-01-09T22:31:29.679Z,6.12
2023-01-09T22:33:58.524Z,6.08
2023-01-09T22:36:27.842Z,6.10
2023-01-09T22:38:56.156Z,6.03
2023-01-09T22:41:25.104Z,5.98
2023-01-09T22:43:52.481Z,6.00
2023-01-09T22:46:19.623Z,6.05
2023-01-09T22:48:47.355Z,6.10
2023-01-09T22:51:17.292Z,6.18
2023-01-09T22:53:44.710Z,6.20
2023-01-09T22:56:15.421Z,6.16
2023-01-09T22:58:42.966Z,6.15
2023-01-09T23:01:12.123Z,6.22
2023-01-09T23:03:40.495Z,6.18
2023-01-09T23:06:12.076Z,6.13
2023-01-09T23:08:39.757Z,6.15
2023-01-09T23:11:11.121Z,6.04
2023-01-09T23:13:38.840Z,5.99
2023-01-09T23:16:07.232Z,6.00
2023-01-09T23:18:34.962Z,6.16
2023-01-09T23:21:05.070Z,6.15
2023-01-09T23:23:32.765Z,6.19
2023-01-09T23:26:02.671Z,6.18
2023-01-09T23:28:30.585Z,6.11
2023-01-09T23:30:58.088Z,6.13
2023-01-09T23:33:25.441Z,6.17
2023-01-09T23:35:52.611Z,6.22
2023-01-09T23:38:20.590Z,6.21
2023-01-09T23:40:47.800Z,6.18
2023-01-09T23:43:15.536Z,6.24
2023-01-09T23:45:44.912Z,6.13
2023-01-09T23:48:14.651Z,6.16
2023-01-09T23:50:49.772Z,6.20
2023-01-09T23:53:18.534Z,6.19
2023-01-09T23:55:45.704Z,6.05
2023-01-09T23:58:12.903Z,6.11
